Time;durP1;ratioP1;P1;durP2;ratioP2;P2;SDS_P1;SDS_P2;PMS_P1;PMS_P2;Temp;Humidity;BMP_temperature;BMP_pressure;BME280_temperature;BME280_humidity;BME280_pressure;Samples;Min_cycle;Max_cycle;Signal;HPM_P1;HPM_P2
2024/04/03 00:00:44;;;;;;;3.30;2.60;;;12.40;68.80;;;;;;4987134;28;113059;-48
2024/04/03 00:03:10;;;;;;;5.32;2.67;;;12.30;69.00;;;;;;4986482;28;113902;-52
2024/04/03 00:05:36;;;;;;;3.20;2.60;;;12.20;69.60;;;;;;4986204;28;113827;-49
2024/04/03 00:08:02;;;;;;;5.45;2.63;;;12.10;70.20;;;;;;4986992;28;112642;-49
2024/04/03 00:10:28;;;;;;;4.82;2.88;;;12.00;70.50;;;;;;4987323;28;112836;-49
2024/04/03 00:12:53;;;;;;;3.67;3.33;;;11.90;70.80;;;;;;4985795;28;114768;-49
2024/04/03 00:15:19;;;;;;;4.25;3.42;;;11.90;70.90;;;;;;4985836;28;114029;-49
2024/04/03 00:17:45;;;;;;;3.20;2.92;;;12.10;70.60;;;;;;4987005;28;112542;-48
2024/04/03 00:20:11;;;;;;;5.03;3.30;;;11.90;71.00;;;;;;4987364;28;112940;-48
2024/04/03 00:22:36;;;;;;;3.92;3.53;;;11.90;71.10;;;;;;4986138;28;113420;-49
2024/04/03 00:25:02;;;;;;;3.97;3.03;;;11.90;71.00;;;;;;4984119;28;113794;-48
2024/04/03 00:27:31;;;;;;;4.90;3.53;;;11.90;71.30;;;;;;4974415;28;112992;-49
2024/04/03 00:29:57;;;;;;;4.78;3.63;;;11.90;71.60;;;;;;4986977;28;113117;-49
2024/04/03 00:32:23;;;;;;;4.50;3.60;;;11.80;71.60;;;;;;4985807;28;114866;-49
2024/04/03 00:34:52;;;;;;;6.93;3.70;;;11.70;72.40;;;;;;4985880;28;113858;-48
2024/04/03 00:37:18;;;;;;;6.50;3.92;;;11.80;72.60;;;;;;4986428;28;112589;-49
2024/04/03 00:39:44;;;;;;;7.00;4.13;;;11.80;72.30;;;;;;4986737;28;112757;-49
2024/04/03 00:42:10;;;;;;;5.35;4.03;;;11.70;72.70;;;;;;4984140;28;115033;-49
2024/04/03 00:44:36;;;;;;;7.05;4.47;;;11.70;72.90;;;;;;4985618;28;113166;-49
2024/04/03 00:47:03;;;;;;;6.38;4.30;;;11.80;72.90;;;;;;4987324;28;112906;-48
2024/04/03 00:49:29;;;;;;;8.93;4.13;;;11.80;73.10;;;;;;4986752;28;113280;-49
2024/04/03 00:51:55;;;;;;;7.72;4.60;;;11.80;73.00;;;;;;4985741;28;113458;-49
2024/04/03 00:54:22;;;;;;;6.57;4.30;;;11.90;73.10;;;;;;4985464;28;114825;-51
2024/04/03 00:56:48;;;;;;;6.78;4.32;;;11.90;72.70;;;;;;4986499;28;112566;-49
2024/04/03 00:59:16;;;;;;;8.88;4.65;;;11.70;73.50;;;;;;4986853;28;112745;-49
2024/04/03 01:01:41;;;;;;;27.15;4.70;;;11.70;73.70;;;;;;4985460;28;113755;-48
2024/04/03 01:04:07;;;;;;;6.30;4.50;;;11.70;73.50;;;;;;4985242;28;112977;-49
2024/04/03 01:06:34;;;;;;;7.63;4.53;;;11.80;73.70;;;;;;4986412;28;112548;-49
2024/04/03 01:09:00;;;;;;;6.85;4.72;;;11.80;73.80;;;;;;4986597;28;112874;-48
2024/04/03 01:11:26;;;;;;;6.75;4.57;;;11.80;73.70;;;;;;4984790;28;114795;-48
2024/04/03 01:13:52;;;;;;;7.65;4.50;;;11.80;73.90;;;;;;4985196;28;113823;-50
2024/04/03 01:16:18;;;;;;;9.40;5.68;;;11.90;73.70;;;;;;4986195;28;112796;-49
2024/04/03 01:18:43;;;;;;;7.47;4.50;;;11.90;73.80;;;;;;4986775;28;112843;-49
2024/04/03 01:21:09;;;;;;;5.55;4.82;;;11.80;74.00;;;;;;4985399;28;113201;-48
2024/04/03 01:23:34;;;;;;;5.57;4.95;;;11.60;74.50;;;;;;4985251;28;113855;-48
2024/04/03 01:26:00;;;;;;;7.93;5.10;;;11.50;74.60;;;;;;4976601;28;112962;-50
2024/04/03 01:28:26;;;;;;;7.40;4.80;;;11.40;74.90;;;;;;4981735;28;112777;-49
2024/04/03 01:30:52;;;;;;;6.35;4.72;;;11.40;75.30;;;;;;4985043;28;114837;-49
2024/04/03 01:33:17;;;;;;;6.65;4.72;;;11.40;75.40;;;;;;4985052;28;114231;-49
2024/04/03 01:35:43;;;;;;;6.40;4.90;;;11.40;75.60;;;;;;4984319;28;112757;-49
2024/04/03 01:38:09;;;;;;;6.63;4.68;;;11.40;75.10;;;;;;4986262;28;112996;-49
2024/04/03 01:40:35;;;;;;;6.80;5.65;;;11.40;75.20;;;;;;4984815;28;114445;-53
2024/04/03 01:43:01;;;;;;;8.50;5.10;;;11.40;75.80;;;;;;4985086;28;112788;-49
2024/04/03 01:45:27;;;;;;;7.07;4.78;;;11.40;75.60;;;;;;4986252;28;112827;-49
2024/04/03 01:47:52;;;;;;;6.78;4.43;;;11.40;75.70;;;;;;4986422;28;114289;-49
2024/04/03 01:50:20;;;;;;;6.70;4.43;;;11.40;75.80;;;;;;4984167;28;114659;-49
2024/04/03 01:52:46;;;;;;;6.68;4.72;;;11.30;75.80;;;;;;4984345;28;113212;-49
2024/04/03 01:55:11;;;;;;;6.22;4.90;;;11.30;75.70;;;;;;4985874;28;112897;-49
2024/04/03 01:57:37;;;;;;;8.27;4.97;;;11.40;75.60;;;;;;4985810;28;112727;-49
2024/04/03 02:00:04;;;;;;;7.75;4.70;;;11.50;74.80;;;;;;4984888;28;113331;-49
2024/04/03 02:02:30;;;;;;;7.10;4.95;;;11.50;74.30;;;;;;4984663;28;112722;-49
2024/04/03 02:04:55;;;;;;;10.75;5.28;;;11.40;75.10;;;;;;4985695;28;113167;-52
2024/04/03 02:07:21;;;;;;;8.27;5.43;;;11.30;75.60;;;;;;4985980;28;112855;-49
2024/04/03 02:09:46;;;;;;;7.63;5.20;;;11.20;76.20;;;;;;4984430;28;115991;-48
2024/04/03 02:12:12;;;;;;;8.60;5.22;;;11.20;75.60;;;;;;4984753;28;113423;-50
2024/04/03 02:14:38;;;;;;;7.55;5.60;;;11.20;75.60;;;;;;4985220;28;112798;-49
2024/04/03 02:17:04;;;;;;;9.18;5.70;;;11.10;76.10;;;;;;4985711;28;112943;-49
2024/04/03 02:19:30;;;;;;;8.68;5.70;;;11.10;76.10;;;;;;4984637;28;114445;-50
2024/04/03 02:21:55;;;;;;;8.73;5.43;;;11.10;75.90;;;;;;4985255;28;113127;-49
2024/04/03 02:24:21;;;;;;;7.70;5.70;;;11.20;75.70;;;;;;4985832;28;112736;-48
2024/04/03 02:26:47;;;;;;;12.05;5.93;;;11.10;75.80;;;;;;4988808;28;112798;-49
2024/04/03 02:29:15;;;;;;;6.20;5.18;;;11.20;75.60;;;;;;4984245;28;113253;-50
2024/04/03 02:31:41;;;;;;;8.43;5.75;;;11.20;75.50;;;;;;4969391;28;112868;-49
2024/04/03 02:34:08;;;;;;;6.38;5.72;;;11.10;75.90;;;;;;4982686;28;112740;-48
2024/04/03 02:36:34;;;;;;;7.95;5.68;;;11.10;76.00;;;;;;4968969;28;112762;-49
2024/04/03 02:39:00;;;;;;;8.82;5.57;;;11.20;76.00;;;;;;4983022;28;113249;-49
2024/04/03 02:41:25;;;;;;;8.00;5.53;;;11.30;75.80;;;;;;4987429;28;112898;-51
2024/04/03 02:43:51;;;;;;;7.80;5.55;;;11.10;75.80;;;;;;4974889;28;112943;-49
2024/04/03 02:46:17;;;;;;;8.88;5.82;;;11.10;76.10;;;;;;4969246;28;112530;-48
2024/04/03 02:48:43;;;;;;;8.07;5.30;;;11.10;76.30;;;;;;4978816;28;113283;-49
2024/04/03 02:51:12;;;;;;;7.70;5.35;;;11.10;76.20;;;;;;4987317;28;113267;-48
2024/04/03 02:53:38;;;;;;;5.47;4.88;;;11.10;76.50;;;;;;4988165;28;113169;-49
2024/04/03 02:56:08;;;;;;;7.13;5.53;;;11.00;76.30;;;;;;4988655;28;112675;-49
2024/04/03 02:58:34;;;;;;;8.13;5.57;;;11.00;76.20;;;;;;4987462;28;114839;-49
2024/04/03 03:01:07;;;;;;;8.48;5.75;;;10.90;76.60;;;;;;4973683;28;112916;-51
2024/04/03 03:03:34;;;;;;;6.43;5.07;;;10.90;76.80;;;;;;4968461;28;112687;-52
2024/04/03 03:06:01;;;;;;;7.45;5.05;;;10.90;77.30;;;;;;4968312;28;112805;-50
2024/04/03 03:08:30;;;;;;;8.75;4.97;;;10.80;77.00;;;;;;4986447;28;113497;-50
2024/04/03 03:10:57;;;;;;;7.85;4.90;;;10.90;76.60;;;;;;4987028;28;113730;-52
2024/04/03 03:13:26;;;;;;;7.00;4.63;;;10.90;76.50;;;;;;4987966;28;112927;-51
2024/04/03 03:15:56;;;;;;;5.35;4.80;;;10.90;76.40;;;;;;4988182;28;112808;-49
2024/04/03 03:18:23;;;;;;;9.13;4.93;;;10.90;76.00;;;;;;4986794;28;113259;-49
2024/04/03 03:20:50;;;;;;;6.60;4.50;;;10.80;76.00;;;;;;4986654;28;114835;-49
2024/04/03 03:23:16;;;;;;;5.70;4.30;;;10.90;76.00;;;;;;4987934;28;112993;-50
2024/04/03 03:25:43;;;;;;;5.30;4.35;;;10.90;75.90;;;;;;4988201;28;112675;-51
2024/04/03 03:28:10;;;;;;;9.55;4.47;;;11.00;75.90;;;;;;4987069;28;113211;-50
2024/04/03 03:30:36;;;;;;;6.65;4.40;;;10.80;76.00;;;;;;4986637;28;112660;-49
2024/04/03 03:33:02;;;;;;;4.93;4.20;;;11.00;76.10;;;;;;4987494;28;113081;-49
2024/04/03 03:35:27;;;;;;;10.30;4.63;;;11.00;76.00;;;;;;4971192;28;112945;-49
2024/04/03 03:37:53;;;;;;;4.38;3.97;;;11.10;75.70;;;;;;4966882;28;113245;-49
2024/04/03 03:40:19;;;;;;;8.45;4.70;;;11.00;75.70;;;;;;4981289;28;112941;-49
2024/04/03 03:42:44;;;;;;;4.35;3.72;;;11.10;75.60;;;;;;4987713;28;112965;-50
2024/04/03 03:45:19;;;;;;;8.20;4.10;;;11.10;75.30;;;;;;4988271;28;112706;-49
2024/04/03 03:47:46;;;;;;;6.30;4.20;;;11.00;75.40;;;;;;4985186;28;114487;-51
2024/04/03 03:52:56;;;;;;;6.03;4.10;;;11.30;74.90;;;;;;4986212;28;112541;-48
2024/04/03 03:55:25;;;;;;;4.70;4.22;;;11.40;74.40;;;;;;4987242;28;112926;-49
2024/04/03 03:57:51;;;;;;;5.13;4.28;;;11.20;75.20;;;;;;4986210;28;113260;-48
2024/04/03 04:00:17;;;;;;;6.90;4.55;;;11.00;75.50;;;;;;4986234;28;113028;-49
2024/04/03 04:02:43;;;;;;;6.80;4.10;;;11.00;75.90;;;;;;4987170;28;112705;-49
2024/04/03 04:05:08;;;;;;;6.05;4.50;;;11.10;75.70;;;;;;4985923;28;112793;-49
2024/04/03 04:07:34;;;;;;;7.45;4.68;;;11.00;75.80;;;;;;4984672;28;115100;-50
2024/04/03 04:10:00;;;;;;;6.90;4.40;;;10.90;76.50;;;;;;4986134;28;114711;-49
2024/04/03 04:12:25;;;;;;;6.70;4.53;;;11.00;76.70;;;;;;4987495;28;113071;-49
2024/04/03 04:14:52;;;;;;;8.73;4.70;;;10.90;76.40;;;;;;4987275;28;112817;-50
2024/04/03 04:17:21;;;;;;;9.43;4.90;;;10.90;76.80;;;;;;4986511;28;113610;-50
2024/04/03 04:19:47;;;;;;;7.63;4.85;;;10.90;76.30;;;;;;4985915;28;114508;-51
2024/04/03 04:22:13;;;;;;;6.25;5.32;;;11.00;76.00;;;;;;4986898;28;112592;-49
2024/04/03 04:24:39;;;;;;;6.18;4.88;;;10.90;76.30;;;;;;4987019;28;112664;-49
2024/04/03 04:27:08;;;;;;;5.70;5.05;;;10.80;76.80;;;;;;4986139;28;114493;-48
2024/04/03 04:29:37;;;;;;;6.15;5.47;;;10.70;77.40;;;;;;4985606;28;113787;-48
2024/04/03 04:32:04;;;;;;;8.15;6.20;;;10.40;78.00;;;;;;4986508;28;113313;-49
2024/04/03 04:34:30;;;;;;;9.30;5.50;;;10.40;78.10;;;;;;4978357;28;112873;-49
2024/04/03 04:36:55;;;;;;;7.07;5.47;;;10.30;78.00;;;;;;4980550;28;113306;-49
2024/04/03 04:39:21;;;;;;;8.88;5.43;;;10.30;77.90;;;;;;4985634;28;113833;-48
2024/04/03 04:41:51;;;;;;;6.35;5.07;;;10.50;77.80;;;;;;4986502;28;112867;-51
2024/04/03 04:44:17;;;;;;;10.70;5.32;;;10.40;78.00;;;;;;4985565;28;112878;-50
2024/04/03 04:46:46;;;;;;;6.60;5.68;;;10.40;77.90;;;;;;4986074;28;113256;-49
2024/04/03 04:49:12;;;;;;;10.77;5.97;;;10.50;77.90;;;;;;4985423;28;112670;-48
2024/04/03 04:51:38;;;;;;;8.95;6.07;;;10.50;77.90;;;;;;4986550;28;112912;-49
2024/04/03 04:54:04;;;;;;;6.82;6.00;;;10.60;77.80;;;;;;4986632;28;112714;-49
2024/04/03 04:56:29;;;;;;;8.75;6.18;;;10.60;77.60;;;;;;4985715;28;113357;-48
2024/04/03 04:58:55;;;;;;;6.18;5.53;;;10.60;77.90;;;;;;4985521;28;113874;-50
2024/04/03 05:01:21;;;;;;;7.05;6.20;;;10.40;78.30;;;;;;4986518;28;113096;-54
2024/04/03 05:03:46;;;;;;;9.23;7.10;;;10.60;78.20;;;;;;4986477;28;112884;-49
2024/04/03 05:06:17;;;;;;;10.10;6.60;;;10.50;78.50;;;;;;4985370;28;113270;-50
2024/04/03 05:08:43;;;;;;;11.60;6.32;;;10.60;78.50;;;;;;4985005;28;114332;-51
2024/04/03 05:11:09;;;;;;;9.23;5.93;;;10.70;77.80;;;;;;4985847;28;113555;-48
2024/04/03 05:13:35;;;;;;;9.48;6.65;;;10.80;77.60;;;;;;4986446;28;112916;-53
2024/04/03 05:16:09;;;;;;;11.25;7.00;;;10.80;77.60;;;;;;4984740;28;114291;-50
2024/04/03 05:18:35;;;;;;;9.40;6.32;;;10.90;77.60;;;;;;4985265;28;113703;-48
2024/04/03 05:21:01;;;;;;;10.30;6.35;;;11.00;77.10;;;;;;4986061;28;112733;-49
2024/04/03 05:23:27;;;;;;;12.30;5.97;;;11.00;77.10;;;;;;4986433;28;113324;-49
2024/04/03 05:26:17;;;;;;;8.25;5.90;;;11.10;77.10;;;;;;4985170;28;114430;-49
2024/04/03 05:28:43;;;;;;;11.60;6.10;;;11.10;76.90;;;;;;4985460;28;113016;-49
2024/04/03 05:31:17;;;;;;;6.72;6.00;;;11.10;77.10;;;;;;4986397;28;112841;-49
2024/04/03 05:33:43;;;;;;;8.55;6.32;;;11.10;77.00;;;;;;4972136;28;112698;-49
2024/04/03 05:36:10;;;;;;;9.60;6.28;;;11.00;77.40;;;;;;4984974;28;113300;-49
2024/04/03 05:38:37;;;;;;;9.13;6.80;;;10.90;77.70;;;;;;4984843;28;114465;-50
2024/04/03 05:41:03;;;;;;;9.98;6.80;;;10.90;77.80;;;;;;4985868;28;112846;-49
2024/04/03 05:43:29;;;;;;;10.02;7.68;;;11.00;78.00;;;;;;4986479;28;113324;-49
2024/04/03 05:45:56;;;;;;;8.32;7.18;;;11.10;78.20;;;;;;4985292;28;114432;-49
2024/04/03 05:48:26;;;;;;;8.35;6.57;;;11.10;77.70;;;;;;4984844;28;113882;-53
2024/04/03 05:51:06;;;;;;;8.82;6.88;;;11.00;77.70;;;;;;4985580;28;112737;-49
2024/04/03 05:53:32;;;;;;;7.80;5.35;;;11.20;77.50;;;;;;4985858;28;112930;-49
2024/04/03 05:56:00;;;;;;;9.25;5.97;;;11.20;77.50;;;;;;4985444;28;113201;-49
2024/04/03 05:58:26;;;;;;;8.45;6.25;;;11.20;77.50;;;;;;4988224;28;114011;-49
2024/04/03 06:00:54;;;;;;;6.63;5.88;;;11.20;77.70;;;;;;4988854;28;113152;-50
2024/04/03 06:03:20;;;;;;;11.18;6.03;;;11.30;77.50;;;;;;4989347;28;112984;-48
2024/04/03 06:05:50;;;;;;;10.63;5.63;;;11.40;77.00;;;;;;4988338;28;113341;-51
2024/04/03 06:08:16;;;;;;;7.13;5.60;;;11.40;77.10;;;;;;4988151;28;113782;-49
2024/04/03 06:10:42;;;;;;;6.32;4.78;;;11.40;77.80;;;;;;4986383;28;112559;-49
2024/04/03 06:13:07;;;;;;;10.38;5.93;;;11.40;77.50;;;;;;4969403;28;112797;-49
2024/04/03 06:15:34;;;;;;;8.55;5.75;;;11.40;77.70;;;;;;4968171;28;114786;-49
2024/04/03 06:18:00;;;;;;;8.73;5.57;;;11.40;77.90;;;;;;4968159;28;112791;-49
2024/04/03 06:20:26;;;;;;;6.38;5.72;;;11.40;77.50;;;;;;4968890;28;113059;-48
2024/04/03 06:22:52;;;;;;;8.75;5.95;;;11.40;77.50;;;;;;4968633;28;112891;-48
2024/04/03 06:25:19;;;;;;;7.32;6.63;;;11.50;77.40;;;;;;4972801;28;114681;-49
2024/04/03 06:27:45;;;;;;;6.72;5.97;;;11.50;77.40;;;;;;4975155;28;112685;-49
2024/04/03 06:30:11;;;;;;;7.22;6.53;;;11.50;77.70;;;;;;4968382;28;112651;-49
2024/04/03 06:32:37;;;;;;;10.25;5.82;;;11.50;78.00;;;;;;4968942;28;112673;-49
2024/04/03 06:35:03;;;;;;;7.28;6.40;;;11.60;78.00;;;;;;4980650;28;114765;-51
2024/04/03 06:37:28;;;;;;;8.68;6.63;;;11.70;77.30;;;;;;4987651;28;112819;-49
2024/04/03 06:39:54;;;;;;;11.07;6.95;;;11.90;76.70;;;;;;4988986;28;113183;-48
2024/04/03 06:42:20;;;;;;;9.75;6.55;;;12.00;76.30;;;;;;4988555;28;112775;-49
2024/04/03 06:44:46;;;;;;;8.65;6.43;;;12.10;76.20;;;;;;4987370;28;113231;-49
2024/04/03 06:47:11;;;;;;;8.68;6.68;;;12.10;76.40;;;;;;4987861;28;113057;-49
2024/04/03 06:49:37;;;;;;;9.52;6.38;;;12.30;75.90;;;;;;4988436;28;112931;-51
2024/04/03 06:52:03;;;;;;;7.78;6.50;;;12.40;75.70;;;;;;4988436;28;112753;-50
2024/04/03 06:54:29;;;;;;;7.18;6.47;;;12.40;76.00;;;;;;4987080;28;114415;-50
2024/04/03 06:56:55;;;;;;;13.02;7.38;;;12.50;75.90;;;;;;4987627;28;112606;-52
2024/04/03 06:59:21;;;;;;;8.20;6.55;;;12.50;75.90;;;;;;4987870;28;112532;-49
2024/04/03 07:01:46;;;;;;;10.45;6.68;;;12.60;75.30;;;;;;4988625;28;112666;-49
2024/04/03 07:04:12;;;;;;;10.98;7.28;;;12.80;74.90;;;;;;4987444;28;113214;-50
2024/04/03 07:06:38;;;;;;;16.70;8.02;;;12.80;74.90;;;;;;4987279;28;112773;-49
2024/04/03 07:09:07;;;;;;;11.43;7.50;;;12.70;75.10;;;;;;4987588;28;112658;-49
2024/04/03 07:11:33;;;;;;;11.45;6.65;;;12.80;75.20;;;;;;4982280;28;114402;-51
2024/04/03 07:13:59;;;;;;;10.45;7.10;;;12.80;75.40;;;;;;4979047;28;113224;-49
2024/04/03 07:16:25;;;;;;;12.23;8.80;;;12.90;75.10;;;;;;4987179;28;112940;-49
2024/04/03 07:18:57;;;;;;;15.43;10.00;;;12.80;75.40;;;;;;4988107;28;112660;-49
2024/04/03 07:21:23;;;;;;;;;;;12.40;76.60;;;;;;4987579;28;113157;-49
2024/04/03 07:23:48;;;;;;;14.32;6.82;;;12.60;76.60;;;;;;4988152;28;114823;-49
2024/04/03 07:26:16;;;;;;;11.00;6.70;;;12.60;76.00;;;;;;4987150;28;112670;-49
2024/04/03 07:28:42;;;;;;;12.07;6.45;;;12.60;76.10;;;;;;4987745;28;112833;-49
2024/04/03 07:31:08;;;;;;;10.68;7.30;;;12.70;75.70;;;;;;4988108;28;112748;-49
2024/04/03 07:33:33;;;;;;;10.75;8.10;;;12.70;75.70;;;;;;4972750;28;114797;-49
2024/04/03 07:36:02;;;;;;;11.93;8.00;;;12.60;76.30;;;;;;4986445;28;113721;-49
2024/04/03 07:38:30;;;;;;;13.02;7.70;;;12.60;76.30;;;;;;4987495;28;112930;-49
2024/04/03 07:40:57;;;;;;;9.95;7.55;;;12.60;76.70;;;;;;4987842;28;112861;-49
2024/04/03 07:43:23;;;;;;;9.05;6.00;;;12.70;76.20;;;;;;4986314;28;114679;-49
2024/04/03 07:45:55;;;;;;;10.43;5.78;;;12.90;76.60;;;;;;4986992;28;113827;-49
2024/04/03 07:48:21;;;;;;;8.82;5.20;;;13.10;75.70;;;;;;4987791;28;112542;-52
2024/04/03 07:50:46;;;;;;;8.60;5.00;;;13.10;75.50;;;;;;4987653;28;112671;-50
2024/04/03 07:53:12;;;;;;;11.13;5.15;;;13.20;76.00;;;;;;4986873;28;113261;-51
2024/04/03 07:55:39;;;;;;;11.27;5.10;;;13.30;76.40;;;;;;4986236;28;112626;-49
2024/04/03 07:58:05;;;;;;;12.88;5.50;;;13.40;76.00;;;;;;4987362;28;113000;-49
2024/04/03 08:00:31;;;;;;;9.90;4.57;;;13.40;76.20;;;;;;4987552;28;112778;-50
2024/04/03 08:02:57;;;;;;;13.95;5.65;;;13.40;75.20;;;;;;4986408;28;113240;-54
2024/04/03 08:05:23;;;;;;;7.63;5.40;;;13.50;75.10;;;;;;4986222;28;113726;-51
2024/04/03 08:07:49;;;;;;;7.28;4.25;;;13.60;75.50;;;;;;4987358;28;112856;-50
2024/04/03 08:10:14;;;;;;;9.25;4.50;;;13.60;75.40;;;;;;4987454;28;112799;-49
2024/04/03 08:12:40;;;;;;;14.98;4.35;;;13.70;75.10;;;;;;4986241;28;113256;-49
2024/04/03 08:15:11;;;;;;;10.05;4.28;;;13.50;74.60;;;;;;4986468;28;113113;-49
2024/04/03 08:17:37;;;;;;;11.13;4.38;;;13.60;74.70;;;;;;4987319;28;113205;-50
2024/04/03 08:20:04;;;;;;;11.40;4.03;;;13.80;74.30;;;;;;4987072;28;112791;-49
2024/04/03 08:22:30;;;;;;;14.65;4.18;;;13.90;74.10;;;;;;4986066;28;114977;-52
2024/04/03 08:24:56;;;;;;;7.90;3.63;;;14.10;73.30;;;;;;4985435;28;113998;-50
2024/04/03 08:27:21;;;;;;;12.18;4.75;;;14.10;72.60;;;;;;4985362;28;112718;-50
2024/04/03 08:29:49;;;;;;;12.63;4.93;;;14.10;72.60;;;;;;4986793;28;113070;-49
2024/04/03 08:32:18;;;;;;;9.93;4.53;;;14.10;73.20;;;;;;4981895;28;114320;-54
2024/04/03 08:34:44;;;;;;;11.23;4.45;;;14.20;73.20;;;;;;4976464;28;113946;-54
2024/04/03 08:37:12;;;;;;;9.15;3.90;;;14.10;74.10;;;;;;4986882;28;112563;-49
2024/04/03 08:39:38;;;;;;;10.00;4.10;;;14.10;74.30;;;;;;4986709;28;112857;-49
2024/04/03 08:42:04;;;;;;;8.20;4.05;;;14.20;74.90;;;;;;4986080;28;113205;-51
2024/04/03 08:44:35;;;;;;;8.95;4.10;;;14.40;74.70;;;;;;4985485;28;113885;-52
2024/04/03 08:47:02;;;;;;;8.65;4.00;;;14.60;74.70;;;;;;4987251;28;112694;-49
2024/04/03 08:49:32;;;;;;;8.40;3.78;;;14.60;74.60;;;;;;4986650;28;112814;-49
2024/04/03 08:52:04;;;;;;;8.65;3.95;;;14.50;74.30;;;;;;4985435;28;113844;-50
2024/04/03 08:54:31;;;;;;;10.27;4.07;;;14.60;74.30;;;;;;4985809;28;112748;-50
2024/04/03 08:56:59;;;;;;;15.05;4.25;;;14.60;72.50;;;;;;4986308;28;112839;-50
2024/04/03 08:59:25;;;;;;;10.38;2.92;;;14.90;71.80;;;;;;4986619;28;112672;-50
2024/04/03 09:01:51;;;;;;;7.28;2.92;;;14.80;71.10;;;;;;4985410;28;114523;-49
2024/04/03 09:04:18;;;;;;;12.30;3.95;;;14.90;71.20;;;;;;4983901;28;112903;-51
2024/04/03 09:06:45;;;;;;;12.82;4.72;;;14.70;71.60;;;;;;4984546;28;112985;-50
2024/04/03 09:09:20;;;;;;;9.57;3.42;;;14.60;72.60;;;;;;4985713;28;112758;-52
2024/04/03 09:11:48;;;;;;;10.05;3.10;;;14.60;72.70;;;;;;4966299;28;113371;-51
2024/04/03 09:14:20;;;;;;;9.82;3.40;;;14.80;72.40;;;;;;4968256;28;114074;-50
2024/04/03 09:16:47;;;;;;;11.10;3.28;;;14.80;71.90;;;;;;4969354;28;112934;-50
2024/04/03 09:19:13;;;;;;;10.05;3.40;;;15.00;71.80;;;;;;4972073;28;112926;-50
2024/04/03 09:21:43;;;;;;;10.35;3.42;;;15.00;71.70;;;;;;4971793;28;114614;-50
2024/04/03 09:24:09;;;;;;;14.27;3.53;;;15.00;71.90;;;;;;4969711;28;112971;-52
2024/04/03 09:26:52;;;;;;;10.77;3.50;;;14.90;71.90;;;;;;4969098;28;112993;-54
2024/04/03 09:29:18;;;;;;;10.77;3.58;;;14.90;72.00;;;;;;4975866;28;113029;-50
2024/04/03 09:31:45;;;;;;;11.20;3.47;;;14.90;71.90;;;;;;4976339;28;114595;-52
2024/04/03 09:34:11;;;;;;;17.55;4.45;;;15.00;72.10;;;;;;4975501;28;112734;-51
2024/04/03 09:36:37;;;;;;;10.65;3.90;;;15.10;72.20;;;;;;4976634;28;112561;-52
2024/04/03 09:39:03;;;;;;;11.98;3.63;;;15.10;72.10;;;;;;4978092;28;113080;-50
2024/04/03 09:41:31;;;;;;;11.45;3.50;;;15.30;71.30;;;;;;4968600;28;114605;-50
2024/04/03 09:44:02;;;;;;;8.48;4.07;;;15.30;71.20;;;;;;4981319;28;112612;-50
2024/04/03 09:46:46;;;;;;;16.35;4.00;;;15.20;70.90;;;;;;4970071;28;112606;-50
2024/04/03 09:49:14;;;;;;;9.05;3.22;;;15.40;70.20;;;;;;4975635;28;113110;-53
2024/04/03 09:51:40;;;;;;;9.05;3.67;;;15.40;69.10;;;;;;4968421;28;113466;-51
2024/04/03 09:54:09;;;;;;;11.57;3.13;;;15.60;69.20;;;;;;4968436;28;113777;-49
2024/04/03 09:56:37;;;;;;;9.95;2.80;;;15.80;68.30;;;;;;4969438;28;114141;-51
2024/04/03 09:59:02;;;;;;;8.02;3.40;;;15.90;67.90;;;;;;4969387;28;112927;-50
2024/04/03 10:01:30;;;;;;;13.57;3.40;;;15.90;67.40;;;;;;4969053;28;113257;-50
2024/04/03 10:04:07;;;;;;;12.57;3.67;;;16.10;66.70;;;;;;4983317;28;112672;-52
2024/04/03 10:06:41;;;;;;;12.18;3.40;;;16.50;66.50;;;;;;4969177;28;112780;-51
2024/04/03 10:09:22;;;;;;;9.57;3.60;;;16.50;66.10;;;;;;4969480;28;112688;-45
2024/04/03 10:11:52;;;;;;;9.18;3.90;;;16.50;65.90;;;;;;4968631;28;113767;-55
2024/04/03 10:14:39;;;;;;;8.75;3.90;;;16.20;66.80;;;;;;4968380;28;113174;-55
2024/04/03 10:17:14;;;;;;;12.68;4.15;;;16.20;66.20;;;;;;4969750;28;113252;-55
2024/04/03 10:19:44;;;;;;;8.43;3.83;;;16.30;66.30;;;;;;4969551;28;112611;-55
2024/04/03 10:22:17;;;;;;;10.13;3.85;;;16.40;65.80;;;;;;4975309;28;114995;-55
2024/04/03 10:24:48;;;;;;;10.07;3.83;;;16.30;67.00;;;;;;4980208;28;114033;-55
2024/04/03 10:27:14;;;;;;;9.05;3.53;;;16.20;67.30;;;;;;4969391;28;112817;-55
2024/04/03 10:29:39;;;;;;;15.32;4.60;;;16.80;65.90;;;;;;4969699;28;113427;-55
2024/04/03 10:32:05;;;;;;;10.00;3.85;;;16.90;64.90;;;;;;4981472;28;113256;-55
2024/04/03 10:34:32;;;;;;;16.00;4.72;;;17.10;65.40;;;;;;4977079;28;112867;-56
2024/04/03 10:36:59;;;;;;;15.85;4.55;;;17.50;64.00;;;;;;4988756;28;113112;-56
2024/04/03 10:39:24;;;;;;;11.45;3.80;;;17.50;64.60;;;;;;4988963;28;113198;-56
2024/04/03 10:41:59;;;;;;;13.98;4.25;;;17.90;63.20;;;;;;4972425;28;113158;-56
2024/04/03 10:44:26;;;;;;;10.77;4.07;;;18.00;63.10;;;;;;4971098;28;113986;-56
2024/04/03 10:46:51;;;;;;;10.10;4.10;;;18.40;62.10;;;;;;4977454;28;112451;-56
2024/04/03 10:49:18;;;;;;;11.18;4.13;;;19.90;57.70;;;;;;4968760;28;112702;-57
2024/04/03 10:51:44;;;;;;;8.65;3.67;;;20.90;54.70;;;;;;4967841;28;114768;-57
2024/04/03 10:54:12;;;;;;;11.48;4.05;;;20.20;54.90;;;;;;4967546;28;113692;-56
2024/04/03 10:56:38;;;;;;;8.85;3.88;;;20.60;55.50;;;;;;4968533;28;112589;-57
2024/04/03 10:59:03;;;;;;;10.88;4.93;;;21.90;53.50;;;;;;4968675;28;113385;-58
2024/04/03 11:01:30;;;;;;;6.28;4.50;;;22.90;49.80;;;;;;4967697;28;113326;-55
2024/04/03 11:03:56;;;;;;;8.35;4.47;;;31.00;37.00;;;;;;4980989;28;116579;-55
2024/04/03 11:06:23;;;;;;;12.55;4.60;;;33.20;33.20;;;;;;4968382;28;114196;-56
2024/04/03 11:08:49;;;;;;;8.20;4.90;;;32.70;32.90;;;;;;4968660;28;114213;-56
2024/04/03 11:11:16;;;;;;;7.07;4.43;;;29.90;44.70;;;;;;4976350;28;114339;-55
2024/04/03 11:13:48;;;;;;;8.23;4.68;;;29.00;43.00;;;;;;4976272;28;113969;-55
2024/04/03 11:16:14;;;;;;;8.23;5.22;;;26.30;47.10;;;;;;4971802;28;112674;-55
2024/04/03 11:18:43;;;;;;;7.95;5.45;;;26.30;42.90;;;;;;4970228;28;113503;-55
2024/04/03 11:21:12;;;;;;;9.43;5.00;;;23.80;50.50;;;;;;4981455;28;114763;-54
2024/04/03 11:23:39;;;;;;;12.18;5.32;;;25.00;49.60;;;;;;4979427;28;113126;-54
2024/04/03 11:26:05;;;;;;;14.13;5.50;;;23.90;49.30;;;;;;4976611;28;113124;-55
2024/04/03 11:28:32;;;;;;;10.25;6.00;;;21.30;55.40;;;;;;4983235;28;112693;-54
2024/04/03 11:30:58;;;;;;;8.98;5.35;;;18.90;60.00;;;;;;4979913;28;113231;-54
2024/04/03 11:33:24;;;;;;;12.82;5.90;;;17.90;62.40;;;;;;4973481;28;112846;-54
2024/04/03 11:35:49;;;;;;;12.68;5.22;;;18.00;63.40;;;;;;4982564;28;113227;-53
2024/04/03 11:38:15;;;;;;;11.10;5.20;;;17.90;61.60;;;;;;4968341;28;112741;-53
2024/04/03 11:40:41;;;;;;;13.45;4.90;;;17.60;63.20;;;;;;4969003;28;113466;-54
2024/04/03 11:43:06;;;;;;;14.35;4.65;;;17.50;63.80;;;;;;4967478;28;115100;-54
2024/04/03 11:45:32;;;;;;;11.40;4.60;;;17.90;64.00;;;;;;4967517;28;112654;-54
2024/04/03 11:47:58;;;;;;;18.65;6.90;;;17.80;64.00;;;;;;4969563;28;112762;-53
2024/04/03 11:50:23;;;;;;;12.13;4.93;;;17.20;62.50;;;;;;4966740;28;113187;-53
2024/04/03 11:52:49;;;;;;;8.98;4.45;;;17.20;64.00;;;;;;4966741;28;114370;-51
2024/04/03 11:55:15;;;;;;;10.05;4.13;;;17.30;64.60;;;;;;4978313;28;114888;-51
2024/04/03 11:57:41;;;;;;;6.60;4.15;;;17.00;63.70;;;;;;4980757;28;112709;-51
2024/04/03 12:00:11;;;;;;;12.60;4.75;;;17.30;64.00;;;;;;4986077;28;113102;-51
2024/04/03 12:02:38;;;;;;;9.18;4.80;;;17.20;64.30;;;;;;4990591;28;113176;-51
2024/04/03 12:05:05;;;;;;;11.88;4.97;;;17.20;65.30;;;;;;4989869;28;112883;-51
2024/04/03 12:07:30;;;;;;;10.57;5.40;;;17.10;64.80;;;;;;4986257;28;113093;-51
2024/04/03 12:09:56;;;;;;;10.10;5.22;;;17.10;66.30;;;;;;4975366;28;113201;-51
2024/04/03 12:12:23;;;;;;;11.40;5.25;;;17.10;65.10;;;;;;4980919;28;113978;-52
2024/04/03 12:14:49;;;;;;;18.55;6.68;;;17.00;64.00;;;;;;4985688;28;112692;-51
2024/04/03 12:17:17;;;;;;;13.73;4.90;;;17.10;64.30;;;;;;4981955;28;112668;-52
2024/04/03 12:20:03;;;;;;;11.68;4.65;;;17.00;65.50;;;;;;4981861;28;113148;-51
2024/04/03 12:22:29;;;;;;;11.80;4.43;;;17.30;64.20;;;;;;4966072;28;115793;-52
2024/04/03 12:24:56;;;;;;;9.00;4.50;;;17.40;62.70;;;;;;4989857;28;112651;-51
2024/04/03 12:27:21;;;;;;;17.10;5.85;;;18.20;61.20;;;;;;4987222;28;113537;-51
2024/04/03 12:29:47;;;;;;;13.38;3.78;;;18.70;58.80;;;;;;4981267;28;113650;-51
2024/04/03 12:32:13;;;;;;;8.85;3.17;;;20.70;51.70;;;;;;4969580;28;112730;-51
2024/04/03 12:34:39;;;;;;;7.97;3.13;;;25.70;41.10;;;;;;4982458;28;113009;-52